Time;durP1;ratioP1;P1;durP2;ratioP2;P2;SDS_P1;SDS_P2;PMS_P1;PMS_P2;Temp;Humidity;BMP_temperature;BMP_pressure;BME280_temperature;BME280_humidity;BME280_pressure;Samples;Min_cycle;Max_cycle;Signal;HPM_P1;HPM_P2
2021/03/09 00:01:07;;;;;;;13.05;7.37;;;;;;;8.01;61.65;101139.06;4435630;26;20011;-75
2021/03/09 00:03:32;;;;;;;14.73;7.32;;;;;;;7.88;62.26;101139.97;4409086;32;20421;-75
2021/03/09 00:05:58;;;;;;;16.08;8.75;;;;;;;7.79;62.54;101136.81;4411956;32;20413;-75
2021/03/09 00:08:24;;;;;;;19.73;8.15;;;;;;;7.71;62.63;101132.47;4410523;32;20093;-76
2021/03/09 00:10:49;;;;;;;14.43;8.20;;;;;;;7.73;62.77;101136.47;4410764;32;20427;-76
2021/03/09 00:13:15;;;;;;;25.23;8.32;;;;;;;7.66;62.96;101139.31;4393761;32;20082;-75
2021/03/09 00:15:41;;;;;;;15.40;7.87;;;;;;;7.58;63.23;101139.78;4407972;32;20056;-75
2021/03/09 00:18:09;;;;;;;15.07;7.15;;;;;;;7.62;62.72;101132.13;4407253;32;20343;-76
2021/03/09 00:20:35;;;;;;;12.15;6.60;;;;;;;7.64;62.27;101133.31;4408927;32;20501;-76
2021/03/09 00:23:01;;;;;;;17.30;7.80;;;;;;;7.61;62.26;101130.53;4410332;32;20027;-76
2021/03/09 00:25:27;;;;;;;13.62;7.07;;;;;;;7.50;62.52;101127.81;4406238;32;20454;-75
2021/03/09 00:27:53;;;;;;;13.40;7.37;;;;;;;7.44;62.78;101129.44;4411825;32;20468;-76
2021/03/09 00:30:19;;;;;;;20.33;7.45;;;;;;;7.40;62.60;101125.84;4396612;32;20050;-76
2021/03/09 00:32:46;;;;;;;14.87;7.82;;;;;;;7.27;63.36;101124.72;4399761;32;20115;-77
2021/03/09 00:35:11;;;;;;;14.63;6.87;;;;;;;7.18;63.92;101118.75;4413384;32;20077;-74
2021/03/09 00:37:37;;;;;;;15.32;6.78;;;;;;;7.08;64.16;101111.19;4397622;32;20111;-76
2021/03/09 00:40:03;;;;;;;14.87;7.25;;;;;;;7.01;63.91;101118.81;4395441;32;20144;-77
2021/03/09 00:42:29;;;;;;;18.02;8.35;;;;;;;7.00;63.97;101122.84;4409697;32;20472;-76
2021/03/09 00:44:54;;;;;;;20.52;7.57;;;;;;;6.92;64.65;101107.25;4410561;32;20531;-76
2021/03/09 00:47:20;;;;;;;14.85;7.12;;;;;;;6.94;64.53;101110.47;4410027;32;20503;-75
2021/03/09 00:49:46;;;;;;;19.17;8.68;;;;;;;6.86;64.73;101120.06;4410066;32;20465;-77
2021/03/09 00:52:11;;;;;;;17.33;7.80;;;;;;;6.83;64.99;101113.28;4408870;32;20042;-77
2021/03/09 00:54:38;;;;;;;15.48;7.12;;;;;;;6.69;65.40;101120.94;4411913;32;20239;-74
2021/03/09 00:57:03;;;;;;;14.68;6.68;;;;;;;6.65;65.31;101120.91;4410533;32;20394;-76
2021/03/09 00:59:29;;;;;;;18.35;7.35;;;;;;;6.56;65.98;101108.56;4410859;32;20064;-77
2021/03/09 01:01:55;;;;;;;14.02;7.47;;;;;;;6.52;66.17;101110.56;4414411;32;20386;-75
2021/03/09 01:04:20;;;;;;;11.50;6.40;;;;;;;6.48;66.38;101106.97;4408919;32;21447;-79
2021/03/09 01:06:46;;;;;;;13.80;7.45;;;;;;;6.44;66.70;101109.78;4404260;32;20073;-75
2021/03/09 01:09:11;;;;;;;17.33;7.05;;;;;;;6.45;66.64;101116.16;4409167;32;20344;-77
2021/03/09 01:11:37;;;;;;;16.65;6.70;;;;;;;6.37;67.08;101109.78;4396139;32;20702;-75
2021/03/09 01:14:03;;;;;;;17.33;6.43;;;;;;;6.36;67.25;101112.97;4409681;32;20079;-79
2021/03/09 01:16:28;;;;;;;18.75;7.18;;;;;;;6.35;67.38;101108.59;4412658;32;20038;-76
2021/03/09 01:18:54;;;;;;;18.45;7.07;;;;;;;6.32;67.11;101107.38;4415082;32;20050;-76
2021/03/09 01:21:20;;;;;;;19.30;7.22;;;;;;;6.35;67.34;101114.19;4405707;32;20406;-76
2021/03/09 01:23:45;;;;;;;16.17;7.72;;;;;;;6.31;67.44;101108.59;4411214;32;20435;-75
2021/03/09 01:26:11;;;;;;;13.85;7.62;;;;;;;6.31;67.49;101113.38;4408794;32;20410;-74
2021/03/09 01:28:37;;;;;;;14.10;6.72;;;;;;;6.30;67.25;101117.38;4408434;32;20414;-76
2021/03/09 01:31:02;;;;;;;18.37;8.25;;;;;;;6.28;67.32;101111.37;4410020;32;20027;-78
2021/03/09 01:33:28;;;;;;;16.58;7.03;;;;;;;6.26;67.41;101119.38;4410579;32;20058;-76
2021/03/09 01:35:54;;;;;;;15.88;7.75;;;;;;;6.19;67.44;101127.78;4405306;32;20052;-77
2021/03/09 01:38:19;;;;;;;16.73;7.80;;;;;;;6.20;67.70;101129.38;4409303;32;20034;-77
2021/03/09 01:40:45;;;;;;;19.40;7.03;;;;;;;6.24;67.90;101114.19;4407939;32;20061;-76
2021/03/09 01:43:11;;;;;;;12.52;6.45;;;;;;;6.29;67.69;101115.78;4409284;32;20382;-76
2021/03/09 01:45:36;;;;;;;18.30;7.50;;;;;;;6.33;67.47;101116.56;4413682;32;20056;-76
2021/03/09 01:48:04;;;;;;;16.85;7.05;;;;;;;6.34;67.47;101120.97;4404845;32;20079;-77
2021/03/09 01:50:33;;;;;;;13.02;7.05;;;;;;;6.32;67.37;101115.00;4409494;32;20021;-76
2021/03/09 01:53:03;;;;;;;14.13;6.95;;;;;;;6.37;67.31;101112.59;4412814;32;20055;-78
2021/03/09 01:55:29;;;;;;;14.23;7.75;;;;;;;6.48;66.32;101112.56;4407207;32;20038;-76
2021/03/09 01:57:55;;;;;;;17.90;6.53;;;;;;;6.51;66.22;101109.78;4410032;32;20378;-76
2021/03/09 02:00:21;;;;;;;14.93;6.30;;;;;;;6.62;65.43;101104.13;4411588;32;20084;-76
2021/03/09 02:02:47;;;;;;;16.42;6.87;;;;;;;6.53;65.72;101109.38;4406933;32;20113;-76
2021/03/09 02:05:13;;;;;;;15.52;6.62;;;;;;;6.63;65.31;101106.53;4405264;32;20030;-76
2021/03/09 02:07:40;;;;;;;12.73;6.60;;;;;;;6.65;65.29;101092.97;4410235;32;20493;-75
2021/03/09 02:10:10;;;;;;;14.73;6.20;;;;;;;6.62;65.50;101099.34;4408744;32;20079;-75
2021/03/09 02:15:23;;;;;;;13.95;6.45;;;;;;;7.23;64.33;101084.75;3958622;32;15779197;-74
2021/03/09 02:21:07;;;;;;;14.90;6.80;;;;;;;7.11;65.23;101087.19;3990598;32;15023079;-78
2021/03/09 02:32:06;;;;;;;17.80;7.20;;;;;;;6.74;65.53;101086.94;3989184;32;15023212;-79
2021/03/09 02:34:40;;;;;;;18.58;7.50;;;;;;;6.48;66.34;101095.78;4440140;32;20463;-79
2021/03/09 02:37:10;;;;;;;17.37;7.65;;;;;;;6.57;65.84;101090.59;4448120;32;20077;-75
2021/03/09 02:39:37;;;;;;;12.37;6.97;;;;;;;6.49;65.24;101086.19;4441148;32;20431;-74
2021/03/09 02:42:06;;;;;;;14.18;7.45;;;;;;;6.50;65.60;101085.03;4446175;32;20099;-78
2021/03/09 02:44:35;;;;;;;17.80;7.40;;;;;;;6.51;65.66;101079.03;4445517;32;20021;-77
2021/03/09 02:47:04;;;;;;;13.95;6.75;;;;;;;6.48;65.26;101076.22;4442117;32;20062;-77
2021/03/09 02:49:33;;;;;;;16.02;7.25;;;;;;;6.51;65.21;101083.81;4442465;32;20068;-76
2021/03/09 02:52:01;;;;;;;14.40;7.18;;;;;;;6.59;65.53;101071.41;4445459;32;20131;-77
2021/03/09 02:54:27;;;;;;;13.07;7.18;;;;;;;6.56;65.43;101067.41;4438491;32;20009;-78
2021/03/09 02:56:53;;;;;;;17.77;6.75;;;;;;;6.61;65.81;101066.19;4442942;32;20037;-75
2021/03/09 02:59:21;;;;;;;18.67;7.50;;;;;;;6.72;65.47;101069.78;4443866;32;20497;-74
2021/03/09 03:01:49;;;;;;;19.12;7.25;;;;;;;6.75;65.26;101068.97;4438281;32;20037;-79
2021/03/09 03:04:19;;;;;;;14.35;7.32;;;;;;;6.72;65.67;101069.78;4425485;32;20022;-78
2021/03/09 03:06:46;;;;;;;19.62;8.45;;;;;;;6.75;65.79;101068.97;4425606;32;20085;-77
2021/03/09 03:09:15;;;;;;;17.75;7.95;;;;;;;6.78;65.60;101074.53;4425761;32;20087;-78
2021/03/09 03:11:42;;;;;;;16.33;7.85;;;;;;;6.87;65.46;101060.91;4427951;32;20478;-77
2021/03/09 03:14:09;;;;;;;14.93;7.93;;;;;;;6.95;64.77;101062.50;4426218;32;20104;-74
2021/03/09 03:16:38;;;;;;;16.70;8.20;;;;;;;7.00;64.44;101058.47;4425093;32;20091;-76
2021/03/09 03:19:06;;;;;;;26.12;8.55;;;;;;;7.02;64.82;101053.25;4422112;32;20156;-77
2021/03/09 03:21:35;;;;;;;17.10;8.00;;;;;;;6.93;64.85;101052.91;4425664;32;20370;-76
2021/03/09 03:24:03;;;;;;;20.20;8.15;;;;;;;6.98;64.83;101049.69;4425354;32;20135;-77
2021/03/09 03:26:30;;;;;;;16.75;7.68;;;;;;;7.09;64.29;101053.25;4424786;32;20058;-76
2021/03/09 03:28:58;;;;;;;13.85;7.43;;;;;;;7.06;64.34;101051.25;4427528;32;20055;-77
2021/03/09 03:31:24;;;;;;;19.15;8.18;;;;;;;6.99;64.91;101051.25;4420613;32;20039;-78
2021/03/09 03:33:50;;;;;;;17.05;7.57;;;;;;;7.00;65.20;101045.25;4425829;32;20366;-73
2021/03/09 03:36:16;;;;;;;17.23;8.25;;;;;;;6.97;65.19;101048.88;4429213;32;20048;-76
2021/03/09 03:38:43;;;;;;;16.87;8.05;;;;;;;6.95;65.39;101044.91;4426108;32;20363;-77
2021/03/09 03:41:10;;;;;;;14.85;7.68;;;;;;;6.96;65.25;101036.09;4425440;32;20065;-75
2021/03/09 03:43:37;;;;;;;18.52;8.63;;;;;;;7.02;64.97;101042.06;4418126;32;20361;-79
2021/03/09 03:46:05;;;;;;;17.50;8.65;;;;;;;6.99;65.09;101038.09;4416015;32;20246;-74
2021/03/09 03:48:33;;;;;;;15.43;7.75;;;;;;;6.92;65.36;101032.53;4412755;32;20095;-75
2021/03/09 03:51:00;;;;;;;20.12;8.55;;;;;;;6.86;65.32;101038.94;4412651;32;20484;-76
2021/03/09 04:01:35;;;;;;;13.87;7.60;;;;;;;7.11;64.71;101034.03;3996438;31;15015390;-79
2021/03/09 04:04:07;;;;;;;16.95;7.75;;;;;;;7.11;64.71;101034.03;4451608;32;20226;-78
2021/03/09 04:06:33;;;;;;;16.75;7.72;;;;;;;6.69;66.01;101031.44;4453338;32;20833;-77
2021/03/09 04:09:05;;;;;;;17.15;7.82;;;;;;;6.62;66.49;101021.06;4450660;32;20037;-76
2021/03/09 04:11:32;;;;;;;18.62;8.15;;;;;;;6.66;66.71;101016.25;4453569;32;20025;-76
2021/03/09 04:13:59;;;;;;;12.80;7.72;;;;;;;6.74;66.48;101019.81;4451147;32;20086;-76
2021/03/09 04:16:26;;;;;;;14.02;7.53;;;;;;;6.74;66.70;101022.59;4455345;32;20017;-76
2021/03/09 04:18:53;;;;;;;16.95;7.15;;;;;;;6.84;66.70;101021.78;4451555;32;20514;-79
2021/03/09 04:21:21;;;;;;;13.30;7.47;;;;;;;6.97;65.83;101020.13;4452443;32;20041;-74
2021/03/09 04:23:48;;;;;;;13.65;7.85;;;;;;;7.01;65.65;101024.50;4454541;32;20095;-75
2021/03/09 04:26:14;;;;;;;17.65;7.85;;;;;;;7.06;65.71;101021.25;4437981;32;20111;-74
2021/03/09 04:28:40;;;;;;;17.73;8.43;;;;;;;7.16;65.18;101011.22;4449641;32;20048;-75
2021/03/09 04:31:07;;;;;;;15.00;8.15;;;;;;;7.19;65.07;101016.00;4451016;32;20142;-75
2021/03/09 04:33:33;;;;;;;20.15;8.90;;;;;;;7.14;65.23;101016.41;4450679;32;20109;-75
2021/03/09 04:35:59;;;;;;;22.52;8.82;;;;;;;7.23;64.99;101013.97;4449219;32;20045;-74
2021/03/09 04:38:26;;;;;;;15.95;8.60;;;;;;;7.34;64.16;101014.69;4447480;32;20030;-75
2021/03/09 04:40:53;;;;;;;15.32;8.10;;;;;;;7.41;64.23;101015.47;4453169;32;20417;-75
2021/03/09 04:43:20;;;;;;;19.05;8.85;;;;;;;7.39;64.41;101022.66;4456401;32;20107;-76
2021/03/09 04:45:45;;;;;;;14.77;8.25;;;;;;;7.43;64.62;101015.81;4453880;32;20116;-75
2021/03/09 04:48:12;;;;;;;15.00;8.10;;;;;;;7.48;64.95;101017.38;4450453;32;20052;-74
2021/03/09 04:50:38;;;;;;;18.40;8.88;;;;;;;7.53;64.74;101014.97;4448509;32;20077;-75
2021/03/09 04:53:05;;;;;;;17.62;8.07;;;;;;;7.59;64.35;101023.72;4448174;32;20369;-76
2021/03/09 04:55:32;;;;;;;17.80;7.70;;;;;;;7.63;64.82;101013.28;4453321;32;20030;-74
2021/03/09 04:57:58;;;;;;;17.92;8.32;;;;;;;7.69;64.35;101011.62;4447626;32;20033;-76
2021/03/09 05:00:25;;;;;;;17.85;8.13;;;;;;;7.70;63.94;101008.41;4451717;32;20059;-76
2021/03/09 05:02:52;;;;;;;16.15;8.18;;;;;;;7.88;63.47;101013.88;4448996;32;20021;-75
2021/03/09 05:05:21;;;;;;;16.52;7.62;;;;;;;7.92;63.53;101012.63;4454618;32;20021;-74
2021/03/09 05:07:47;;;;;;;16.33;7.90;;;;;;;7.86;63.89;101021.91;4447251;32;20117;-78
2021/03/09 05:10:14;;;;;;;17.25;7.12;;;;;;;7.87;64.13;101010.28;4450658;32;20164;-76
2021/03/09 05:12:42;;;;;;;15.32;7.78;;;;;;;7.94;63.61;101003.81;4439403;32;20101;-77
2021/03/09 05:15:09;;;;;;;16.02;7.35;;;;;;;8.02;63.77;101013.75;4443799;32;20404;-77
2021/03/09 05:17:35;;;;;;;18.35;7.72;;;;;;;8.06;63.74;101017.31;4437757;32;20060;-75
2021/03/09 05:20:01;;;;;;;15.50;7.05;;;;;;;8.13;63.67;101015.25;4435772;32;20053;-75
2021/03/09 05:22:26;;;;;;;16.00;7.57;;;;;;;8.07;63.64;101013.28;4422526;32;20098;-78
2021/03/09 05:24:52;;;;;;;21.23;8.32;;;;;;;8.09;63.69;101017.28;4445984;32;20030;-75
2021/03/09 05:27:18;;;;;;;13.62;7.50;;;;;;;8.05;63.63;101015.72;4436479;32;20402;-76
2021/03/09 05:29:44;;;;;;;14.87;8.48;;;;;;;8.10;63.82;101012.47;4441427;32;20037;-77
2021/03/09 05:32:09;;;;;;;16.92;8.00;;;;;;;8.14;63.80;101010.44;4441582;32;20029;-78
2021/03/09 05:34:35;;;;;;;14.10;7.55;;;;;;;8.10;63.84;101018.88;4441800;32;20098;-77
2021/03/09 05:37:00;;;;;;;17.73;8.60;;;;;;;8.04;63.75;101020.53;4436754;32;20735;-77
2021/03/09 05:39:26;;;;;;;19.02;8.63;;;;;;;7.93;64.32;101013.44;4440130;32;20124;-78
2021/03/09 05:41:52;;;;;;;19.27;8.80;;;;;;;7.83;64.71;101014.34;4435894;32;21425;-75
2021/03/09 05:44:17;;;;;;;24.65;9.68;;;;;;;7.74;64.98;101008.41;4439419;32;20033;-75
2021/03/09 05:46:44;;;;;;;22.23;9.43;;;;;;;7.64;65.42;101012.09;4441846;32;20089;-77
2021/03/09 05:49:10;;;;;;;21.20;9.75;;;;;;;7.54;65.75;101012.94;4426741;32;20052;-78
2021/03/09 05:51:35;;;;;;;17.92;8.77;;;;;;;7.48;65.98;101017.38;4444708;32;20089;-77
2021/03/09 05:54:01;;;;;;;21.58;9.80;;;;;;;7.40;65.78;101008.25;4424182;32;20021;-76
2021/03/09 05:56:27;;;;;;;20.67;9.85;;;;;;;7.32;66.04;101014.31;4442192;32;20069;-75
2021/03/09 05:58:53;;;;;;;24.77;10.95;;;;;;;7.35;65.90;101019.09;4441476;32;20119;-76
2021/03/09 06:01:20;;;;;;;23.25;11.25;;;;;;;7.16;66.74;101014.81;4436651;32;20057;-78
2021/03/09 06:03:46;;;;;;;22.30;11.40;;;;;;;7.10;66.80;101010.06;4439972;32;20037;-76
2021/03/09 06:06:12;;;;;;;24.25;11.12;;;;;;;7.11;67.10;101011.62;4438918;32;20017;-77
2021/03/09 06:08:38;;;;;;;26.17;11.75;;;;;;;7.17;67.13;101010.81;4443446;32;20422;-76
2021/03/09 06:13:48;;;;;;;26.27;11.12;;;;;;;7.79;65.69;101005.94;3987410;32;15026237;-76
2021/03/09 06:16:15;;;;;;;21.70;10.55;;;;;;;7.79;65.69;101005.94;4436868;32;20401;-74
2021/03/09 06:18:58;;;;;;;20.85;11.20;;;;;;;7.39;66.35;101001.06;4435676;32;20377;-79
2021/03/09 06:21:25;;;;;;;25.00;12.50;;;;;;;7.34;66.44;101004.28;4441508;32;20096;-78
2021/03/09 06:23:52;;;;;;;24.08;11.40;;;;;;;7.35;66.53;101000.28;4438286;32;20100;-78
2021/03/09 06:29:13;;;;;;;21.90;10.80;;;;;;;7.70;65.84;100996.44;3987740;32;15026547;-76
2021/03/09 06:31:40;;;;;;;20.73;11.82;;;;;;;7.70;65.84;100996.44;4441554;32;20088;-77
2021/03/09 06:42:37;;;;;;;32.30;12.35;;;;;;;7.72;66.25;100997.59;3986249;32;15023870;-74
2021/03/09 06:50:18;;;;;;;27.02;12.93;;;;;;;7.62;67.23;100998.50;4006780;31;15013319;-76
2021/03/09 06:52:57;;;;;;;26.98;13.73;;;;;;;7.62;67.23;100998.50;4459313;32;20103;-75
2021/03/09 06:55:29;;;;;;;28.52;13.02;;;;;;;7.20;68.03;101004.38;4467036;32;20108;-77
2021/03/09 06:58:12;;;;;;;35.40;13.27;;;;;;;7.23;68.05;100994.38;4444227;32;20356;-77
2021/03/09 07:00:43;;;;;;;29.27;14.02;;;;;;;7.23;67.81;100992.38;4462641;32;20108;-75
2021/03/09 07:03:32;;;;;;;36.83;14.65;;;;;;;7.21;67.92;100991.97;4443259;32;20507;-75
2021/03/09 07:05:59;;;;;;;36.95;13.90;;;;;;;7.14;67.85;100985.63;4451734;32;20171;-74
2021/03/09 07:08:25;;;;;;;31.85;14.38;;;;;;;7.15;67.98;100996.41;4443118;32;20120;-76
2021/03/09 07:10:52;;;;;;;30.55;14.80;;;;;;;7.08;68.00;100998.44;4446806;32;20041;-76
2021/03/09 07:13:27;;;;;;;32.53;15.55;;;;;;;7.02;68.66;101000.09;4448699;32;20029;-75
2021/03/09 07:15:54;;;;;;;35.75;15.93;;;;;;;7.03;68.83;101001.69;4442945;32;20033;-78
2021/03/09 07:18:22;;;;;;;30.98;15.10;;;;;;;7.08;68.94;101004.84;4441328;32;20029;-77
2021/03/09 07:20:51;;;;;;;37.15;17.08;;;;;;;7.12;68.54;101002.06;4450248;32;20049;-78
2021/03/09 07:23:19;;;;;;;33.78;16.83;;;;;;;7.05;68.90;101000.06;4447234;32;20415;-75
2021/03/09 07:25:51;;;;;;;35.15;14.00;;;;;;;6.97;69.50;101000.53;4447607;32;20037;-76
2021/03/09 07:28:18;;;;;;;27.08;13.95;;;;;;;6.99;69.76;101006.50;4422846;32;20056;-76
2021/03/09 07:30:47;;;;;;;30.48;13.73;;;;;;;7.04;69.73;101003.28;4439522;32;20029;-76
2021/03/09 07:33:15;;;;;;;30.52;12.70;;;;;;;7.17;69.55;100988.41;4434938;32;20074;-75
2021/03/09 07:35:41;;;;;;;27.52;11.88;;;;;;;7.20;69.73;100990.41;4447540;32;20045;-77
2021/03/09 07:38:08;;;;;;;28.17;9.75;;;;;;;7.30;69.37;100994.34;4446723;32;20104;-77
2021/03/09 07:40:36;;;;;;;31.20;12.15;;;;;;;7.35;69.35;100996.69;4432475;32;20064;-80
2021/03/09 07:43:02;;;;;;;21.30;8.65;;;;;;;7.44;69.22;100997.84;4434526;32;20086;-80
2021/03/09 07:45:36;;;;;;;22.33;9.40;;;;;;;7.49;68.62;100991.00;4444254;32;20292;-80
2021/03/09 07:50:42;;;;;;;22.87;8.48;;;;;;;8.36;66.76;101003.41;3955515;32;15727714;-80
2021/03/09 07:53:11;;;;;;;15.07;7.12;;;;;;;8.36;66.76;101003.41;4428198;32;20060;-79
2021/03/09 07:55:38;;;;;;;22.33;6.82;;;;;;;7.96;67.26;100996.59;4426224;32;20582;-79
2021/03/09 08:00:58;;;;;;;11.32;5.20;;;;;;;8.77;64.64;101004.13;3981393;32;15022013;-79
2021/03/09 08:16:50;;;;;;;22.55;8.50;;;;;;;9.76;62.08;101015.50;3978123;32;15024808;-79
2021/03/09 08:22:09;;;;;;;28.60;9.18;;;;;;;10.25;60.65;101008.28;3992748;32;15016731;-80
2021/03/09 08:27:36;;;;;;;33.72;14.18;;;;;;;10.09;59.83;101000.53;3991902;31;15019430;-79
2021/03/09 08:32:45;;;;;;;39.95;15.73;;;;;;;10.50;59.20;100982.47;3973603;32;15022262;-81
2021/03/09 08:37:49;;;;;;;33.53;12.63;;;;;;;10.77;58.58;100997.97;3945804;32;15735617;-80
2021/03/09 08:45:56;;;;;;;17.92;6.37;;;;;;;11.00;58.15;100997.09;3977256;32;15022858;-77
2021/03/09 08:48:46;;;;;;;18.85;6.80;;;;;;;10.76;58.21;100999.22;4421616;32;20511;-79
2021/03/09 08:51:47;;;;;;;22.02;7.03;;;;;;;10.96;57.55;101002.84;4422466;32;20034;-79
2021/03/09 08:54:25;;;;;;;23.70;8.32;;;;;;;11.12;56.90;101005.69;4419389;32;20026;-82
2021/03/09 08:56:51;;;;;;;28.23;9.98;;;;;;;11.21;56.26;101002.28;4422215;32;20022;-78
2021/03/09 08:59:21;;;;;;;27.75;9.95;;;;;;;11.30;56.19;101002.47;4419772;32;20125;-78
2021/03/09 09:01:47;;;;;;;23.55;9.00;;;;;;;11.44;55.69;101007.75;4414949;32;20069;-78
2021/03/09 09:04:14;;;;;;;21.42;8.88;;;;;;;11.64;55.02;101012.16;4411708;32;20100;-80
2021/03/09 09:06:40;;;;;;;23.80;9.38;;;;;;;11.88;54.64;101012.78;4406970;32;20034;-79
2021/03/09 09:09:06;;;;;;;23.08;9.38;;;;;;;11.96;54.08;101026.25;4405228;32;20165;-79
2021/03/09 09:11:32;;;;;;;27.98;11.73;;;;;;;12.08;53.90;101030.37;4408404;32;20026;-78
2021/03/09 09:14:12;;;;;;;27.05;11.07;;;;;;;11.91;54.56;101038.06;4410725;32;20216;-78
2021/03/09 09:16:38;;;;;;;21.75;7.15;;;;;;;11.93;54.83;101038.41;4410718;32;20193;-78
2021/03/09 09:19:04;;;;;;;16.10;6.43;;;;;;;11.49;56.33;101027.78;4414312;32;20046;-78
2021/03/09 09:21:30;;;;;;;13.27;7.32;;;;;;;11.49;56.75;101015.72;4410434;32;20050;-79
2021/03/09 09:23:56;;;;;;;20.88;8.73;;;;;;;11.23;57.52;101020.31;4409232;32;20093;-77
2021/03/09 09:26:21;;;;;;;15.55;7.43;;;;;;;11.30;57.72;101017.38;4410483;32;20104;-76
2021/03/09 09:28:47;;;;;;;19.00;7.45;;;;;;;11.45;56.95;101012.19;4410157;32;20537;-77
2021/03/09 09:31:15;;;;;;;16.62;7.03;;;;;;;11.68;56.99;101007.22;4408640;32;20058;-77
2021/03/09 09:33:47;;;;;;;10.40;5.80;;;;;;;11.98;55.40;100998.41;4407049;32;20100;-76
2021/03/09 09:36:13;;;;;;;17.65;6.07;;;;;;;12.48;54.45;101003.50;4407991;32;20034;-77
2021/03/09 09:38:39;;;;;;;10.77;4.22;;;;;;;12.79;53.00;101004.62;4410668;32;20192;-77
2021/03/09 09:41:05;;;;;;;16.20;4.57;;;;;;;13.14;51.61;101002.84;4407461;32;20512;-77
2021/03/09 09:43:33;;;;;;;13.27;4.70;;;;;;;13.38;51.37;100990.75;4407993;32;20144;-76
2021/03/09 09:46:06;;;;;;;27.15;4.85;;;;;;;13.58;49.74;100997.00;4407026;32;20057;-76
2021/03/09 09:48:37;;;;;;;20.35;5.65;;;;;;;13.88;49.37;100992.78;4407138;32;20428;-76
2021/03/09 09:51:05;;;;;;;15.98;5.30;;;;;;;13.57;50.16;101000.28;4406881;32;20438;-78
2021/03/09 09:56:26;;;;;;;17.20;7.62;;;;;;;13.33;52.55;100980.03;3988154;31;15016046;-75
2021/03/09 09:58:54;;;;;;;21.62;6.97;;;;;;;13.33;52.55;100980.03;4453843;32;20040;-75
2021/03/09 10:01:40;;;;;;;22.00;6.03;;;;;;;13.01;53.53;100968.13;4449751;32;20083;-77
2021/03/09 10:04:08;;;;;;;19.77;5.70;;;;;;;13.00;53.81;100975.00;4445538;32;20381;-77
2021/03/09 10:09:20;;;;;;;33.38;5.53;;;;;;;13.24;53.49;100976.28;3979392;32;15023736;-75
2021/03/09 10:11:49;;;;;;;14.38;4.00;;;;;;;13.36;53.32;100973.47;4435706;32;20068;-75
2021/03/09 10:14:16;;;;;;;20.65;3.30;;;;;;;13.46;52.85;100966.69;4434414;32;20053;-75
2021/03/09 10:16:43;;;;;;;25.60;5.35;;;;;;;13.73;52.16;100972.66;4434683;32;20067;-74
2021/03/09 10:19:17;;;;;;;32.53;4.50;;;;;;;13.74;52.35;100957.25;4433876;32;20446;-74
2021/03/09 10:21:43;;;;;;;18.02;2.70;;;;;;;13.90;52.71;100948.63;4434030;32;20584;-75
2021/03/09 10:24:09;;;;;;;3.78;1.80;;;;;;;13.95;52.67;100948.06;4436834;32;20053;-73
2021/03/09 10:26:41;;;;;;;25.15;3.78;;;;;;;13.88;53.09;100937.00;4435474;32;20068;-76
2021/03/09 10:29:23;;;;;;;4.68;1.48;;;;;;;13.79;54.09;100933.25;4432540;32;20041;-73
2021/03/09 10:34:37;;;;;;;13.93;2.35;;;;;;;13.33;55.32;100931.19;3978820;32;15041369;-75
2021/03/09 10:37:04;;;;;;;7.28;3.80;;;;;;;13.33;55.32;100931.19;4433115;32;20080;-75
2021/03/09 10:39:32;;;;;;;22.48;7.68;;;;;;;12.98;56.30;100930.22;4431063;32;20100;-76
2021/03/09 10:42:26;;;;;;;14.85;3.45;;;;;;;13.36;55.77;100928.25;4435355;32;20064;-76
2021/03/09 10:44:52;;;;;;;15.00;2.92;;;;;;;13.59;54.78;100935.53;4435469;32;20410;-75
2021/03/09 10:47:18;;;;;;;8.38;1.87;;;;;;;13.80;54.16;100932.00;4433587;32;20105;-75
2021/03/09 10:49:44;;;;;;;5.68;2.85;;;;;;;13.89;53.93;100929.28;4435667;32;20440;-74
2021/03/09 10:52:10;;;;;;;18.70;3.00;;;;;;;13.84;54.20;100927.81;4435563;32;20167;-76
2021/03/09 10:54:37;;;;;;;14.02;2.87;;;;;;;13.69;54.67;100928.78;4435745;32;20502;-77
2021/03/09 10:57:05;;;;;;;17.95;3.97;;;;;;;13.80;53.89;100915.03;4434969;32;20411;-75
2021/03/09 10:59:31;;;;;;;15.93;3.47;;;;;;;13.67;54.85;100915.09;4432188;32;20155;-78
2021/03/09 11:01:58;;;;;;;15.00;3.70;;;;;;;13.77;54.34;100922.41;4431593;32;20510;-78
2021/03/09 11:04:25;;;;;;;9.27;3.30;;;;;;;13.70;54.29;100919.81;4424572;32;20106;-78
2021/03/09 11:06:51;;;;;;;10.02;2.60;;;;;;;13.42;55.25;100920.78;4423674;32;20099;-74
2021/03/09 11:09:17;;;;;;;8.70;3.17;;;;;;;13.37;55.47;100929.81;4424385;32;20022;-74
2021/03/09 11:11:44;;;;;;;8.45;3.15;;;;;;;13.49;55.06;100934.66;4423826;32;20541;-75
2021/03/09 11:14:10;;;;;;;7.12;2.25;;;;;;;13.44;55.36;100940.88;4425544;32;20071;-77
2021/03/09 11:16:36;;;;;;;6.70;2.25;;;;;;;13.55;54.46;100938.50;4429064;32;20059;-74
2021/03/09 11:19:03;;;;;;;7.70;2.50;;;;;;;13.42;54.90;100934.91;4424674;32;20081;-75
2021/03/09 11:21:28;;;;;;;10.75;2.75;;;;;;;12.96;56.63;100935.53;4424170;32;20052;-76
2021/03/09 11:23:56;;;;;;;18.30;4.10;;;;;;;12.64;57.86;100940.56;4427710;32;20108;-77
2021/03/09 11:26:23;;;;;;;10.77;3.55;;;;;;;12.66;57.83;100940.88;4428994;32;20463;-78
2021/03/09 11:28:51;;;;;;;8.98;3.58;;;;;;;12.69;57.85;100934.34;4428693;32;20397;-77
2021/03/09 11:31:18;;;;;;;11.82;4.57;;;;;;;12.85;57.48;100960.47;4427899;32;20030;-79
2021/03/09 11:33:44;;;;;;;25.15;4.35;;;;;;;13.14;56.82;100957.62;4433403;32;20481;-75
2021/03/09 11:36:11;;;;;;;11.23;4.12;;;;;;;13.42;56.03;100946.22;4426570;32;20059;-77
2021/03/09 11:38:39;;;;;;;7.05;3.40;;;;;;;13.50;55.64;100930.59;4426555;32;20057;-78
2021/03/09 11:41:06;;;;;;;12.45;3.58;;;;;;;13.82;54.79;100921.84;4420150;32;20056;-77
2021/03/09 11:43:32;;;;;;;7.68;3.00;;;;;;;14.20;54.10;100912.44;4428502;32;20089;-78
2021/03/09 11:45:57;;;;;;;24.73;3.92;;;;;;;14.31;53.19;100927.00;4416677;32;20061;-77
2021/03/09 11:48:24;;;;;;;14.07;3.03;;;;;;;14.42;52.98;100933.84;4415856;32;20176;-78
2021/03/09 11:50:50;;;;;;;17.15;4.78;;;;;;;14.11;53.76;100940.66;4413896;32;20069;-78
2021/03/09 11:53:16;;;;;;;9.30;3.62;;;;;;;14.39;52.86;100940.44;4418483;32;20030;-78
2021/03/09 11:55:42;;;;;;;15.10;4.70;;;;;;;14.22;53.42;100941.06;4406582;32;20533;-77
2021/03/09 11:58:08;;;;;;;24.02;4.18;;;;;;;14.16;54.01;100942.88;4419921;32;20094;-77
2021/03/09 12:00:34;;;;;;;8.13;3.92;;;;;;;14.18;53.67;100935.53;4414058;32;20093;-76
2021/03/09 12:03:00;;;;;;;10.20;3.90;;;;;;;14.25;53.24;100931.69;4412642;32;20103;-78
2021/03/09 12:05:26;;;;;;;12.30;3.60;;;;;;;14.54;52.54;100935.06;4415456;32;20451;-77
2021/03/09 12:07:51;;;;;;;17.45;4.10;;;;;;;14.53;52.45;100939.13;4410397;32;20120;-79
2021/03/09 12:10:17;;;;;;;13.15;4.12;;;;;;;14.29;53.01;100935.19;4413738;32;20155;-81
2021/03/09 12:12:44;;;;;;;18.37;4.80;;;;;;;13.97;54.11;100931.38;4414515;32;21123;-80
2021/03/09 12:15:11;;;;;;;14.85;4.82;;;;;;;13.71;54.98;100938.37;4414462;32;20123;-81
2021/03/09 12:17:37;;;;;;;13.60;4.68;;;;;;;13.80;54.73;100932.00;4417873;32;20091;-80
2021/03/09 12:20:04;;;;;;;8.90;4.00;;;;;;;13.45;55.86;100927.56;4419634;32;20053;-79
2021/03/09 12:22:30;;;;;;;12.18;4.55;;;;;;;13.32;56.30;100930.38;4416238;32;20607;-82
2021/03/09 12:24:56;;;;;;;17.60;5.60;;;;;;;13.24;55.82;100922.56;4416934;32;20037;-81
2021/03/09 12:27:22;;;;;;;13.62;4.78;;;;;;;13.02;57.29;100921.66;4422492;32;20070;-77
2021/03/09 12:29:47;;;;;;;16.30;5.57;;;;;;;12.46;59.06;100910.03;4414540;32;20057;-79
2021/03/09 12:32:13;;;;;;;18.75;5.30;;;;;;;12.73;58.57;100906.81;4417701;32;20105;-79
2021/03/09 12:34:39;;;;;;;21.62;5.95;;;;;;;12.76;58.70;100903.88;4414558;32;20112;-81
2021/03/09 12:37:06;;;;;;;11.05;4.60;;;;;;;12.80;58.73;100893.28;4415049;32;20060;-79
2021/03/09 12:39:32;;;;;;;9.40;4.40;;;;;;;12.93;58.33;100894.06;4424559;32;20078;-78
2021/03/09 12:41:59;;;;;;;11.07;4.80;;;;;;;13.05;57.84;100895.34;4416447;32;20419;-80
2021/03/09 12:44:25;;;;;;;10.95;4.50;;;;;;;13.15;57.74;100891.37;4416430;32;20086;-81
2021/03/09 12:46:51;;;;;;;11.68;4.47;;;;;;;13.35;56.84;100897.59;4413646;32;20080;-82